createdAt,value
2018-07-26T19:05:09.985Z,33.00
2018-07-26T19:10:09.228Z,32.40
2018-07-26T19:12:38.668Z,32.30
2018-07-26T19:15:09.852Z,32.20
2018-07-26T19:17:38.579Z,32.10
2018-07-26T19:20:08.654Z,32.00
2018-07-26T19:25:06.283Z,31.90
2018-07-26T19:27:34.968Z,31.80
2018-07-26T19:30:03.547Z,31.70
2018-07-26T19:32:31.973Z,31.70
2018-07-26T19:37:28.906Z,31.60
2018-07-26T19:39:57.373Z,31.50
2018-07-26T19:42:26.087Z,31.40
2018-07-26T19:44:54.486Z,31.30
2018-07-26T19:47:23.161Z,31.10
2018-07-26T19:49:51.712Z,31.00
2018-07-26T19:52:20.309Z,30.90
2018-07-26T19:54:48.903Z,30.90
2018-07-26T19:57:17.334Z,30.80
2018-07-26T19:59:45.779Z,30.80
2018-07-26T20:02:15.116Z,30.80
2018-07-26T20:04:43.575Z,30.80
2018-07-26T20:07:12.029Z,30.80
2018-07-26T20:09:40.489Z,30.80
2018-07-26T20:12:08.948Z,30.80
2018-07-26T20:14:37.343Z,30.80
2018-07-26T20:17:06.160Z,30.80
2018-07-26T20:19:34.660Z,30.70
2018-07-26T20:22:03.128Z,30.70
2018-07-26T20:24:31.519Z,30.60
2018-07-26T20:26:59.952Z,30.60
2018-07-26T20:29:28.396Z,30.60
2018-07-26T20:34:25.038Z,30.50
2018-07-26T20:36:53.565Z,30.50
2018-07-26T20:39:21.988Z,30.40
2018-07-26T20:41:50.451Z,30.50
2018-07-26T20:44:18.924Z,30.40
2018-07-26T20:46:47.343Z,30.40
2018-07-26T20:49:15.755Z,30.30
2018-07-26T20:51:44.185Z,30.30
2018-07-26T20:54:12.596Z,30.20
2018-07-26T20:56:41.052Z,30.10
2018-07-26T20:59:09.623Z,30.10
2018-07-26T21:01:38.088Z,30.00
2018-07-26T21:04:06.723Z,29.90
2018-07-26T21:06:35.185Z,29.90
2018-07-26T21:09:05.083Z,29.90
2018-07-26T21:11:33.568Z,29.80
2018-07-26T21:14:01.964Z,29.70
2018-07-26T21:16:30.451Z,29.70
2018-07-26T21:18:59.293Z,29.60
2018-07-26T21:21:27.856Z,29.60
2018-07-26T21:23:56.244Z,29.50
2018-07-26T21:26:24.682Z,29.50
2018-07-26T21:28:53.088Z,29.40
2018-07-26T21:31:21.524Z,29.40
2018-07-26T21:33:49.978Z,29.30
2018-07-26T21:36:18.401Z,29.30
2018-07-26T21:38:46.799Z,29.20
2018-07-26T21:41:15.204Z,29.10
2018-07-26T21:43:43.639Z,29.10
2018-07-26T21:46:12.319Z,29.10
2018-07-26T21:48:40.813Z,29.10
2018-07-26T21:51:09.267Z,29.10
2018-07-26T21:53:37.971Z,29.10
2018-07-26T21:56:06.967Z,29.00
2018-07-26T21:58:35.375Z,29.00
2018-07-26T22:01:03.901Z,29.00
2018-07-26T22:03:32.463Z,29.00
2018-07-26T22:06:01.046Z,28.90
2018-07-26T22:08:29.548Z,28.90
2018-07-26T22:10:58.053Z,28.90
2018-07-26T22:13:26.538Z,28.90
2018-07-26T22:15:55.003Z,28.90
2018-07-26T22:18:23.819Z,28.90
2018-07-26T22:20:52.488Z,28.90
2018-07-26T22:23:22.060Z,28.90
2018-07-26T22:25:51.215Z,28.90
2018-07-26T22:28:20.086Z,28.80
2018-07-26T22:30:48.911Z,28.80
2018-07-26T22:33:17.403Z,28.80
2018-07-26T22:35:45.831Z,28.70
2018-07-26T22:38:14.304Z,28.60
2018-07-26T22:40:42.783Z,28.60
2018-07-26T22:43:11.219Z,28.60
2018-07-26T22:45:39.744Z,28.50
2018-07-26T22:48:08.374Z,28.50
2018-07-26T22:50:36.775Z,28.50
2018-07-26T22:53:05.312Z,28.40
2018-07-26T22:55:33.753Z,28.40
2018-07-26T22:58:02.292Z,28.40
2018-07-26T23:00:30.881Z,28.30
2018-07-26T23:02:59.317Z,28.30
2018-07-26T23:05:27.843Z,28.30
2018-07-26T23:07:56.282Z,28.20
2018-07-26T23:10:24.722Z,28.20
2018-07-26T23:12:53.131Z,28.20
2018-07-26T23:15:21.632Z,28.10
2018-07-26T23:17:50.032Z,28.10
2018-07-26T23:20:18.443Z,28.00
2018-07-26T23:22:51.213Z,28.00
2018-07-26T23:25:20.083Z,28.00
2018-07-26T23:27:48.470Z,27.90
2018-07-26T23:30:16.875Z,27.80
2018-07-26T23:32:45.321Z,27.80
2018-07-26T23:35:13.854Z,27.80
2018-07-26T23:37:42.322Z,27.70
2018-07-26T23:40:11.512Z,27.70
2018-07-26T23:42:40.645Z,27.70
2018-07-26T23:45:09.131Z,27.60
2018-07-26T23:47:37.539Z,27.60
2018-07-26T23:50:06.240Z,27.60
2018-07-26T23:52:34.717Z,27.50
2018-07-26T23:55:03.215Z,27.50
2018-07-26T23:57:31.624Z,27.40
